Time;durP1;ratioP1;P1;durP2;ratioP2;P2;SDS_P1;SDS_P2;PMS_P1;PMS_P2;Temp;Humidity;BMP_temperature;BMP_pressure;BME280_temperature;BME280_humidity;BME280_pressure;Samples;Min_cycle;Max_cycle;Signal;HPM_P1;HPM_P2
2021/12/06 00:00:23;;;;;;;8.05;4.35;;;5.50;95.00;;;;;;4846417;29;20046;-82
2021/12/06 00:02:52;;;;;;;6.28;3.63;;;5.50;95.00;;;;;;4854057;29;20057;-82
2021/12/06 00:05:20;;;;;;;8.13;4.85;;;5.50;95.00;;;;;;4843858;29;20609;-82
2021/12/06 00:07:47;;;;;;;9.02;4.43;;;5.50;95.00;;;;;;4830807;29;20049;-82
2021/12/06 00:10:16;;;;;;;7.30;4.00;;;5.40;95.00;;;;;;4833694;29;20049;-82
2021/12/06 00:12:43;;;;;;;9.13;4.95;;;5.40;95.00;;;;;;4832614;29;20204;-82
2021/12/06 00:15:13;;;;;;;8.63;4.88;;;5.40;95.00;;;;;;4847608;29;20069;-82
2021/12/06 00:17:40;;;;;;;8.35;4.35;;;5.40;95.00;;;;;;4847181;29;20096;-82
2021/12/06 00:20:10;;;;;;;9.10;4.93;;;5.40;95.00;;;;;;4848706;29;20077;-82
2021/12/06 00:22:38;;;;;;;8.98;5.07;;;5.40;95.00;;;;;;4848534;29;20062;-82
2021/12/06 00:25:08;;;;;;;10.27;5.55;;;5.40;95.00;;;;;;4853304;29;20105;-81
2021/12/06 00:27:39;;;;;;;9.90;5.32;;;5.50;95.00;;;;;;4843340;29;20065;-82
2021/12/06 00:30:15;;;;;;;8.82;4.97;;;5.40;94.90;;;;;;4846717;29;20053;-82
2021/12/06 00:32:43;;;;;;;9.05;5.28;;;5.40;95.00;;;;;;4848405;29;20050;-81
2021/12/06 00:35:17;;;;;;;10.10;5.78;;;5.40;95.00;;;;;;4854208;29;20061;-81
2021/12/06 00:37:55;;;;;;;11.40;5.95;;;5.40;95.00;;;;;;4845849;29;20114;-82
2021/12/06 00:40:23;;;;;;;7.85;4.68;;;5.40;95.00;;;;;;4834040;29;20078;-82
2021/12/06 00:42:50;;;;;;;8.95;4.68;;;5.40;95.00;;;;;;4829106;29;20057;-82
2021/12/06 00:45:20;;;;;;;9.88;5.75;;;5.40;95.00;;;;;;4848334;29;20121;-82
2021/12/06 00:47:48;;;;;;;12.05;5.80;;;5.40;95.00;;;;;;4841570;29;20566;-82
2021/12/06 00:50:16;;;;;;;11.65;5.82;;;5.40;95.00;;;;;;4837342;29;20562;-82
2021/12/06 00:52:48;;;;;;;10.85;6.75;;;5.40;95.00;;;;;;4837142;29;20071;-82
2021/12/06 00:55:17;;;;;;;10.60;5.68;;;5.40;95.00;;;;;;4849207;29;20076;-81
2021/12/06 00:57:46;;;;;;;13.68;7.10;;;5.40;95.30;;;;;;4850811;29;20212;-81
2021/12/06 01:00:26;;;;;;;10.45;6.13;;;5.40;95.00;;;;;;4854020;29;20050;-81
2021/12/06 01:02:54;;;;;;;12.50;6.15;;;5.40;95.00;;;;;;4832761;29;20050;-81
2021/12/06 01:05:25;;;;;;;11.77;5.75;;;5.40;95.00;;;;;;4842990;29;20096;-81
2021/12/06 01:07:54;;;;;;;10.13;5.22;;;5.40;95.10;;;;;;4847028;29;20058;-82
2021/12/06 01:10:23;;;;;;;9.85;4.95;;;5.30;95.00;;;;;;4844170;29;20054;-80
2021/12/06 01:12:56;;;;;;;10.68;5.32;;;5.40;95.10;;;;;;4846289;29;20494;-81
2021/12/06 01:15:25;;;;;;;11.43;6.55;;;5.40;95.10;;;;;;4853144;29;20697;-82
2021/12/06 01:17:52;;;;;;;10.93;5.75;;;5.30;95.10;;;;;;4852983;29;20054;-81
2021/12/06 01:20:27;;;;;;;11.52;6.50;;;5.30;95.00;;;;;;4830802;29;20479;-82
2021/12/06 01:23:02;;;;;;;13.57;6.53;;;5.40;95.10;;;;;;4829132;29;20750;-81
2021/12/06 01:25:58;;;;;;;12.45;7.15;;;5.30;95.00;;;;;;4820112;29;20069;-81
2021/12/06 01:41:31;;;;;;;12.10;6.07;;;5.40;95.10;;;;;;4842518;29;20057;-81
2021/12/06 01:44:10;;;;;;;10.20;5.30;;;5.40;95.10;;;;;;4837316;29;20452;-82
2021/12/06 01:46:49;;;;;;;9.65;4.90;;;5.40;95.00;;;;;;4842817;29;20086;-82
2021/12/06 01:49:19;;;;;;;10.20;5.50;;;5.40;95.10;;;;;;4833961;29;20054;-82
2021/12/06 01:51:48;;;;;;;11.73;5.45;;;5.40;95.10;;;;;;4841409;29;21074;-82
2021/12/06 01:54:16;;;;;;;11.20;5.47;;;5.40;95.00;;;;;;4819906;29;20065;-81
2021/12/06 01:56:43;;;;;;;14.65;6.88;;;5.40;95.00;;;;;;4846042;29;20061;-82
2021/12/06 01:59:12;;;;;;;15.27;7.03;;;5.40;95.00;;;;;;4835383;29;20050;-82
2021/12/06 02:01:40;;;;;;;14.13;6.95;;;5.40;95.00;;;;;;4834074;29;20050;-81
2021/12/06 02:04:09;;;;;;;16.45;8.98;;;5.40;95.00;;;;;;4839609;29;20504;-81
2021/12/06 02:06:39;;;;;;;17.33;8.25;;;5.40;95.00;;;;;;4835198;29;20046;-82
2021/12/06 02:09:12;;;;;;;15.55;7.32;;;5.40;95.00;;;;;;4845650;29;20125;-82
2021/12/06 02:11:40;;;;;;;13.80;6.68;;;5.40;95.10;;;;;;4850729;29;20057;-82
2021/12/06 02:17:06;;;;;;;13.98;7.28;;;5.40;95.10;;;;;;4832664;29;20051;-81
2021/12/06 02:19:40;;;;;;;14.10;6.18;;;5.40;95.10;;;;;;4842702;29;20483;-81
2021/12/06 02:22:30;;;;;;;14.65;6.35;;;5.40;95.10;;;;;;4844251;29;20105;-81
2021/12/06 02:25:00;;;;;;;12.00;6.20;;;5.40;95.00;;;;;;4842598;29;20157;-81
2021/12/06 02:27:30;;;;;;;13.70;5.88;;;5.40;95.10;;;;;;4850314;29;20041;-81
2021/12/06 02:30:01;;;;;;;12.85;5.93;;;5.40;95.10;;;;;;4825242;29;20062;-82
2021/12/06 02:32:30;;;;;;;13.13;5.90;;;5.40;95.30;;;;;;4829483;29;20077;-81
2021/12/06 02:34:58;;;;;;;13.48;6.53;;;5.40;95.10;;;;;;4859442;29;20049;-81
2021/12/06 02:37:30;;;;;;;12.15;5.93;;;5.40;95.10;;;;;;4852076;29;20110;-81
2021/12/06 02:40:09;;;;;;;13.43;5.95;;;5.50;95.10;;;;;;4843677;29;20046;-81
2021/12/06 02:42:37;;;;;;;12.10;5.65;;;5.40;95.10;;;;;;4843123;29;20050;-81
2021/12/06 02:45:08;;;;;;;12.50;5.22;;;5.40;95.10;;;;;;4844811;29;20066;-81
2021/12/06 02:47:35;;;;;;;11.95;5.65;;;5.40;95.10;;;;;;4845443;29;20059;-81
2021/12/06 02:50:08;;;;;;;12.32;5.20;;;5.40;95.10;;;;;;4850023;29;20141;-81
2021/12/06 02:52:37;;;;;;;11.30;5.70;;;5.40;95.10;;;;;;4857663;29;20048;-81
2021/12/06 02:55:22;;;;;;;15.48;6.93;;;5.40;95.10;;;;;;4842857;29;20156;-81
2021/12/06 02:57:55;;;;;;;13.73;6.22;;;5.40;95.10;;;;;;4827028;29;20054;-81
2021/12/06 03:00:25;;;;;;;11.25;5.35;;;5.40;95.10;;;;;;4835990;29;20069;-81
2021/12/06 03:02:53;;;;;;;10.23;3.95;;;5.40;95.10;;;;;;4850314;29;20061;-81
2021/12/06 03:05:20;;;;;;;10.70;4.78;;;5.40;95.10;;;;;;4825878;29;20140;-81
2021/12/06 03:07:58;;;;;;;11.82;5.38;;;5.40;95.10;;;;;;4828990;29;20081;-83
2021/12/06 03:11:28;;;;;;;8.43;4.10;;;5.40;95.20;;;;;;4814296;29;20140;-83
2021/12/06 03:14:32;;;;;;;10.85;4.13;;;5.40;95.10;;;;;;4840920;29;20049;-81
2021/12/06 03:17:07;;;;;;;11.50;4.05;;;5.40;95.20;;;;;;4865068;29;20038;-80
2021/12/06 03:19:36;;;;;;;9.88;3.95;;;5.40;95.20;;;;;;4838781;29;20101;-81
2021/12/06 03:22:18;;;;;;;8.52;3.22;;;5.40;95.10;;;;;;4844661;29;20049;-82
2021/12/06 03:24:50;;;;;;;12.05;5.40;;;5.40;95.10;;;;;;4841496;29;20574;-81
2021/12/06 03:27:22;;;;;;;10.27;4.57;;;5.40;95.10;;;;;;4844085;29;20052;-80
2021/12/06 03:29:57;;;;;;;12.15;5.57;;;5.50;95.10;;;;;;4838695;29;20144;-81
2021/12/06 03:32:25;;;;;;;10.98;4.45;;;5.40;95.10;;;;;;4832609;29;20068;-80
2021/12/06 03:34:52;;;;;;;12.30;4.65;;;5.50;95.10;;;;;;4846132;29;20056;-82
2021/12/06 03:37:24;;;;;;;9.82;4.47;;;5.50;95.10;;;;;;4814081;29;20057;-81
2021/12/06 03:39:54;;;;;;;12.45;5.72;;;5.40;95.10;;;;;;4846229;29;20045;-82
2021/12/06 03:42:28;;;;;;;12.00;5.32;;;5.40;95.10;;;;;;4846039;29;20127;-82
2021/12/06 03:44:55;;;;;;;9.20;3.72;;;5.50;95.10;;;;;;4843766;29;20140;-81
2021/12/06 03:47:28;;;;;;;12.25;4.97;;;5.50;95.10;;;;;;4818605;29;20044;-81
2021/12/06 03:49:58;;;;;;;11.43;4.43;;;5.40;95.10;;;;;;4866745;29;20089;-80
2021/12/06 03:52:27;;;;;;;10.70;4.28;;;5.50;95.20;;;;;;4840665;29;20045;-81
2021/12/06 03:54:56;;;;;;;9.43;4.47;;;5.50;95.20;;;;;;4844212;29;20475;-80
2021/12/06 03:57:26;;;;;;;10.27;4.32;;;5.50;95.10;;;;;;4817047;29;20144;-80
2021/12/06 03:59:53;;;;;;;8.25;4.55;;;5.50;95.20;;;;;;4847679;29;20049;-81
2021/12/06 04:02:27;;;;;;;8.90;3.78;;;5.50;95.10;;;;;;4845875;29;20084;-81
2021/12/06 04:04:56;;;;;;;9.10;4.03;;;5.50;95.10;;;;;;4838809;29;20132;-81
2021/12/06 04:07:27;;;;;;;10.15;4.68;;;5.50;95.10;;;;;;4846354;29;20057;-81
2021/12/06 04:09:56;;;;;;;10.25;4.18;;;5.50;95.10;;;;;;4830654;29;20053;-81
2021/12/06 04:12:23;;;;;;;10.70;4.65;;;5.50;95.10;;;;;;4845579;29;20054;-81
2021/12/06 04:14:53;;;;;;;11.02;4.43;;;5.50;95.10;;;;;;4846800;29;20454;-82
2021/12/06 04:17:26;;;;;;;12.05;5.50;;;5.50;95.10;;;;;;4830541;29;20072;-80
2021/12/06 04:19:55;;;;;;;10.85;5.15;;;5.50;95.10;;;;;;4843238;29;20038;-81
2021/12/06 04:22:23;;;;;;;12.25;4.97;;;5.50;95.10;;;;;;4831930;29;20136;-81
2021/12/06 04:24:58;;;;;;;13.40;6.07;;;5.50;95.10;;;;;;4831343;29;20050;-82
2021/12/06 04:27:25;;;;;;;;;;;5.50;95.10;;;;;;4821404;29;20144;-82
2021/12/06 04:29:56;;;;;;;14.23;5.72;;;5.40;95.10;;;;;;4868475;29;19959;-82
2021/12/06 04:32:26;;;;;;;15.00;5.45;;;5.40;95.10;;;;;;4831822;29;20077;-82
2021/12/06 04:34:53;;;;;;;13.63;5.93;;;5.40;95.10;;;;;;4838052;29;20418;-82
2021/12/06 04:37:27;;;;;;;13.50;5.68;;;5.40;95.10;;;;;;4829083;29;20080;-82
2021/12/06 04:39:55;;;;;;;14.38;6.20;;;5.40;95.10;;;;;;4813830;29;20550;-81
2021/12/06 04:42:23;;;;;;;11.85;4.97;;;5.40;95.10;;;;;;4832012;29;20086;-82
2021/12/06 04:44:53;;;;;;;11.98;6.65;;;5.40;95.20;;;;;;4827162;29;20046;-81
2021/12/06 04:47:20;;;;;;;13.88;5.18;;;5.40;95.10;;;;;;4847876;29;21155;-81
2021/12/06 04:49:49;;;;;;;10.38;4.63;;;5.30;95.10;;;;;;4831369;29;20058;-81
2021/12/06 04:52:19;;;;;;;11.40;4.57;;;5.30;95.20;;;;;;4827929;29;20103;-82
2021/12/06 04:54:57;;;;;;;11.63;3.92;;;5.30;95.20;;;;;;4857473;29;20676;-80
2021/12/06 04:57:33;;;;;;;12.90;5.28;;;5.30;95.20;;;;;;4846507;29;20057;-81
2021/12/06 05:00:11;;;;;;;13.13;5.38;;;5.30;95.20;;;;;;4842147;29;20140;-81
2021/12/06 05:02:41;;;;;;;11.35;5.03;;;5.30;95.20;;;;;;4865748;29;20106;-81
2021/12/06 05:05:15;;;;;;;11.95;4.70;;;5.30;95.20;;;;;;4840056;29;20118;-82
2021/12/06 05:07:54;;;;;;;9.57;4.40;;;5.20;95.20;;;;;;4826587;29;20156;-81
2021/12/06 05:10:22;;;;;;;11.93;5.15;;;5.20;95.30;;;;;;4865758;29;20057;-81
2021/12/06 05:12:50;;;;;;;8.43;3.75;;;5.20;95.30;;;;;;4829879;29;20078;-81
2021/12/06 05:15:20;;;;;;;9.10;3.70;;;5.10;95.30;;;;;;4867876;29;20068;-83
2021/12/06 05:17:52;;;;;;;11.50;4.53;;;5.10;95.30;;;;;;4846693;29;20582;-81
2021/12/06 05:20:20;;;;;;;11.30;5.07;;;5.10;95.20;;;;;;4866566;29;20133;-82
2021/12/06 05:22:55;;;;;;;11.02;5.03;;;5.10;95.30;;;;;;4813469;29;21158;-82
2021/12/06 05:25:25;;;;;;;11.95;6.05;;;5.00;95.30;;;;;;4861016;29;20057;-81
2021/12/06 05:27:58;;;;;;;13.18;5.95;;;5.00;95.30;;;;;;4869294;29;20057;-82
2021/12/06 05:30:27;;;;;;;9.25;4.13;;;4.90;95.30;;;;;;4829205;29;20053;-81
2021/12/06 05:32:58;;;;;;;12.27;4.88;;;4.90;95.30;;;;;;4821240;29;20062;-82
2021/12/06 05:35:25;;;;;;;12.20;5.05;;;4.80;95.30;;;;;;4813988;29;20057;-81
2021/12/06 05:37:56;;;;;;;10.80;3.80;;;4.80;95.30;;;;;;4815636;29;20058;-81
2021/12/06 05:40:27;;;;;;;11.75;5.43;;;4.70;95.40;;;;;;4837438;29;20046;-81
2021/12/06 05:42:56;;;;;;;12.02;5.30;;;4.70;95.40;;;;;;4850620;29;20057;-81
2021/12/06 05:45:26;;;;;;;10.07;4.28;;;4.70;95.50;;;;;;4844588;29;20410;-82
2021/12/06 05:47:57;;;;;;;11.63;4.97;;;4.60;95.40;;;;;;4825668;29;20153;-81
2021/12/06 05:50:25;;;;;;;10.27;4.13;;;4.60;95.40;;;;;;4844942;29;20656;-81
2021/12/06 05:52:55;;;;;;;12.57;4.63;;;4.60;95.50;;;;;;4858756;29;21296;-81
2021/12/06 05:55:27;;;;;;;9.70;4.35;;;4.60;95.50;;;;;;4846144;29;20120;-82
2021/12/06 05:58:00;;;;;;;12.35;4.10;;;4.60;95.50;;;;;;4843379;29;20805;-81
2021/12/06 06:00:31;;;;;;;9.93;4.63;;;4.60;95.50;;;;;;4828968;29;20046;-82
2021/12/06 06:03:06;;;;;;;10.82;4.95;;;4.70;95.60;;;;;;4842774;29;20134;-80
2021/12/06 06:05:41;;;;;;;11.35;4.03;;;4.70;95.50;;;;;;4850930;29;20499;-79
2021/12/06 06:08:09;;;;;;;11.40;3.85;;;4.80;95.50;;;;;;4857782;29;20106;-79
2021/12/06 06:10:38;;;;;;;11.40;6.18;;;4.80;95.50;;;;;;4825390;29;20133;-79
2021/12/06 06:13:08;;;;;;;11.80;4.78;;;4.80;95.40;;;;;;4836741;29;20053;-78
2021/12/06 06:15:36;;;;;;;14.88;6.40;;;4.80;95.40;;;;;;4826507;29;20054;-77
2021/12/06 06:18:04;;;;;;;13.32;4.82;;;4.80;95.40;;;;;;4845365;29;20048;-79
2021/12/06 06:20:45;;;;;;;10.30;5.43;;;4.80;95.40;;;;;;4824813;29;20488;-79
2021/12/06 06:23:17;;;;;;;12.68;5.55;;;4.90;95.40;;;;;;4841670;29;20155;-79
2021/12/06 06:25:45;;;;;;;13.75;5.57;;;4.90;95.40;;;;;;4842595;29;20063;-79
2021/12/06 06:28:12;;;;;;;11.55;5.35;;;4.90;95.40;;;;;;4843516;29;20144;-80
2021/12/06 06:30:40;;;;;;;13.27;5.28;;;4.90;95.40;;;;;;4844415;29;20142;-79
2021/12/06 06:33:15;;;;;;;12.88;5.15;;;4.90;95.40;;;;;;4840981;29;20048;-79
2021/12/06 06:35:43;;;;;;;13.65;6.20;;;5.00;95.40;;;;;;4847446;29;20045;-77
2021/12/06 06:38:14;;;;;;;16.88;7.05;;;5.00;95.30;;;;;;4844189;29;20440;-78
2021/12/06 06:40:45;;;;;;;12.52;5.82;;;5.00;95.30;;;;;;4842543;29;20110;-79
2021/12/06 06:43:12;;;;;;;16.23;6.88;;;5.00;95.30;;;;;;4841998;29;20188;-79
2021/12/06 06:45:39;;;;;;;12.35;5.65;;;5.10;95.30;;;;;;4845460;29;20061;-79
2021/12/06 06:48:08;;;;;;;11.38;5.38;;;5.10;95.30;;;;;;4812431;29;20554;-81
2021/12/06 06:50:36;;;;;;;11.40;5.72;;;5.10;95.20;;;;;;4846666;29;20524;-79
2021/12/06 06:53:03;;;;;;;14.73;5.90;;;5.10;95.20;;;;;;4835259;29;20692;-79
2021/12/06 06:55:30;;;;;;;12.07;5.63;;;5.10;95.20;;;;;;4828544;29;20065;-79
2021/12/06 06:57:57;;;;;;;10.35;4.93;;;5.10;95.20;;;;;;4833734;29;20053;-79
2021/12/06 07:00:29;;;;;;;13.02;6.22;;;5.10;95.20;;;;;;4846036;29;20042;-80
2021/12/06 07:02:56;;;;;;;13.32;5.95;;;5.10;95.20;;;;;;4865269;29;20559;-80
2021/12/06 07:05:26;;;;;;;13.70;6.43;;;5.10;95.20;;;;;;4834804;29;20046;-80
2021/12/06 07:07:53;;;;;;;12.60;6.05;;;5.10;95.20;;;;;;4840811;29;20070;-80
2021/12/06 07:10:35;;;;;;;16.13;7.63;;;5.10;95.20;;;;;;4850146;29;20067;-80
2021/12/06 07:13:08;;;;;;;14.25;7.07;;;5.10;95.20;;;;;;4847974;29;20388;-78
2021/12/06 07:15:36;;;;;;;12.27;5.75;;;5.10;95.20;;;;;;4850104;29;20057;-78
2021/12/06 07:18:04;;;;;;;15.18;6.95;;;5.10;95.20;;;;;;4811355;29;20495;-79
2021/12/06 07:20:41;;;;;;;15.82;6.80;;;5.10;95.20;;;;;;4833079;29;20155;-81
2021/12/06 07:23:08;;;;;;;18.23;8.77;;;5.10;95.20;;;;;;4852821;29;20463;-79
2021/12/06 07:25:35;;;;;;;13.75;6.90;;;5.10;95.10;;;;;;4856142;29;20054;-79
2021/12/06 07:28:05;;;;;;;16.17;6.40;;;5.10;95.10;;;;;;4834691;29;20483;-79
2021/12/06 07:30:32;;;;;;;13.20;7.15;;;5.10;95.20;;;;;;4846659;29;20064;-79
2021/12/06 07:33:00;;;;;;;13.10;6.03;;;5.00;95.10;;;;;;4852961;29;20061;-77
2021/12/06 07:35:29;;;;;;;11.43;5.25;;;5.10;95.20;;;;;;4836714;29;20057;-78
2021/12/06 07:37:59;;;;;;;15.93;6.38;;;5.00;95.10;;;;;;4834156;29;20536;-78
2021/12/06 07:40:31;;;;;;;12.85;6.75;;;5.10;95.20;;;;;;4847872;29;20545;-86
2021/12/06 07:43:08;;;;;;;10.90;4.80;;;5.10;95.20;;;;;;4852607;29;20045;-84
2021/12/06 07:45:36;;;;;;;10.10;5.35;;;5.10;95.20;;;;;;4848918;29;20057;-81
2021/12/06 07:48:06;;;;;;;12.38;5.70;;;5.10;95.20;;;;;;4871192;29;20045;-81
2021/12/06 07:50:36;;;;;;;10.40;6.30;;;5.10;95.20;;;;;;4849316;29;20447;-82
2021/12/06 07:53:05;;;;;;;12.20;5.78;;;5.10;95.20;;;;;;4834767;29;20104;-82
2021/12/06 07:55:34;;;;;;;11.90;5.47;;;5.00;95.10;;;;;;4835241;29;20053;-84
2021/12/06 07:58:07;;;;;;;10.90;5.03;;;5.00;95.10;;;;;;4858696;29;20129;-83
2021/12/06 08:00:44;;;;;;;7.80;4.03;;;5.10;95.10;;;;;;4823889;29;20337;-77
2021/12/06 08:03:12;;;;;;;8.43;4.18;;;5.00;95.10;;;;;;4845362;29;20525;-84
2021/12/06 08:06:01;;;;;;;12.82;5.22;;;5.00;95.20;;;;;;4853123;29;20061;-86
2021/12/06 08:08:33;;;;;;;10.07;4.85;;;5.00;95.10;;;;;;4839769;29;20073;-85
2021/12/06 08:11:13;;;;;;;10.10;5.70;;;5.00;95.10;;;;;;4828213;29;20136;-84
2021/12/06 08:13:53;;;;;;;9.85;5.20;;;5.00;95.10;;;;;;4864445;29;20060;-85
2021/12/06 08:16:30;;;;;;;9.90;5.05;;;5.00;95.10;;;;;;4847991;29;20058;-83
2021/12/06 08:19:09;;;;;;;10.90;5.93;;;5.00;95.20;;;;;;4832408;29;20078;-84
2021/12/06 08:21:40;;;;;;;10.95;5.25;;;5.00;95.20;;;;;;4845525;29;20054;-83
2021/12/06 08:24:07;;;;;;;12.77;5.20;;;5.00;95.10;;;;;;4867545;29;20056;-83
2021/12/06 08:26:39;;;;;;;12.27;5.78;;;5.00;95.10;;;;;;4872946;29;20077;-83
2021/12/06 08:29:13;;;;;;;11.25;5.22;;;5.00;95.10;;;;;;4848744;29;20046;-83
2021/12/06 08:31:55;;;;;;;;;;;;;;;;;;;;;
2021/12/06 08:34:27;;;;;;;10.68;5.20;;;5.00;95.10;;;;;;4848757;29;20061;-84
2021/12/06 08:36:54;;;;;;;13.98;6.22;;;5.00;95.20;;;;;;4847870;29;20054;-83
2021/12/06 08:39:25;;;;;;;10.45;5.28;;;5.00;95.10;;;;;;4842569;29;20089;-83
2021/12/06 08:42:09;;;;;;;11.40;5.50;;;5.00;95.10;;;;;;4843074;29;20114;-81
2021/12/06 08:44:36;;;;;;;12.63;5.68;;;5.00;95.10;;;;;;4817172;29;20056;-81
2021/12/06 08:47:07;;;;;;;12.98;5.82;;;5.00;95.10;;;;;;4828089;29;20734;-82
2021/12/06 08:49:37;;;;;;;9.02;5.40;;;5.00;95.10;;;;;;4834798;29;20045;-83
2021/12/06 08:52:14;;;;;;;16.50;7.15;;;5.00;95.10;;;;;;4837398;29;20141;-83
2021/12/06 08:54:41;;;;;;;14.15;7.50;;;5.00;95.10;;;;;;4834251;29;20873;-82
2021/12/06 08:57:11;;;;;;;12.27;6.55;;;5.00;95.10;;;;;;4830936;29;20460;-83
2021/12/06 08:59:52;;;;;;;14.90;8.27;;;5.00;95.10;;;;;;4835928;29;20047;-86
2021/12/06 09:02:24;;;;;;;17.35;8.68;;;5.00;95.00;;;;;;4858727;29;20048;-85
2021/12/06 09:05:18;;;;;;;14.05;7.05;;;4.90;95.00;;;;;;4866434;29;20048;-83
2021/12/06 09:07:49;;;;;;;10.85;6.20;;;4.90;95.00;;;;;;4845228;29;20057;-81
2021/12/06 09:10:31;;;;;;;10.63;5.65;;;5.00;95.10;;;;;;4823735;29;20061;-88
2021/12/06 09:13:21;;;;;;;13.40;6.50;;;5.00;95.00;;;;;;4840296;29;20058;-88
2021/12/06 09:15:59;;;;;;;10.35;6.18;;;5.00;95.00;;;;;;4845041;29;20058;-87
2021/12/06 09:18:34;;;;;;;11.98;5.70;;;5.00;95.00;;;;;;4867248;29;20061;-90
2021/12/06 09:21:24;;;;;;;11.68;5.13;;;5.00;95.00;;;;;;4853616;29;20510;-83
2021/12/06 09:24:00;;;;;;;9.63;4.80;;;5.00;95.00;;;;;;4847974;29;20057;-82
2021/12/06 09:26:28;;;;;;;8.32;4.43;;;5.10;95.00;;;;;;4867215;29;20068;-85
2021/12/06 09:29:03;;;;;;;10.48;5.38;;;5.00;95.00;;;;;;4830952;29;20448;-84
2021/12/06 09:31:41;;;;;;;10.63;5.38;;;5.00;94.90;;;;;;4845720;29;20050;-85
2021/12/06 09:34:15;;;;;;;13.00;5.97;;;5.00;94.90;;;;;;4848148;29;20152;-84
2021/12/06 09:36:43;;;;;;;10.38;6.30;;;5.00;94.90;;;;;;4859296;29;20124;-84
2021/12/06 09:39:21;;;;;;;11.45;6.50;;;4.90;94.90;;;;;;4847785;29;20600;-83
2021/12/06 09:42:03;;;;;;;9.23;4.68;;;5.00;95.00;;;;;;4836717;29;20088;-84
2021/12/06 09:44:44;;;;;;;7.95;4.60;;;4.90;95.00;;;;;;4844960;29;20392;-84
2021/12/06 09:47:19;;;;;;;9.57;4.85;;;4.90;95.00;;;;;;4830077;29;20575;-81
2021/12/06 09:49:49;;;;;;;9.57;4.97;;;4.90;95.00;;;;;;4845948;29;20819;-81
2021/12/06 09:52:21;;;;;;;9.95;5.00;;;4.90;95.00;;;;;;4843762;29;20136;-81
2021/12/06 09:54:49;;;;;;;8.05;4.38;;;5.00;95.00;;;;;;4832706;29;20062;-82
2021/12/06 09:57:19;;;;;;;10.43;4.63;;;5.00;95.00;;;;;;4843172;29;20057;-80
2021/12/06 09:59:46;;;;;;;7.35;4.13;;;5.00;95.00;;;;;;4828150;29;20129;-80
2021/12/06 10:02:19;;;;;;;9.65;5.07;;;5.00;95.00;;;;;;4826267;29;20037;-80
2021/12/06 10:04:54;;;;;;;8.23;3.85;;;5.00;95.00;;;;;;4850792;29;20054;-81
2021/12/06 10:07:27;;;;;;;7.75;4.05;;;5.10;95.00;;;;;;4845211;29;20141;-80
2021/12/06 10:10:09;;;;;;;7.35;3.95;;;5.10;95.00;;;;;;4831188;29;20061;-81
2021/12/06 10:12:38;;;;;;;7.72;4.40;;;5.10;94.90;;;;;;4864412;29;20073;-81
2021/12/06 10:15:06;;;;;;;9.55;5.05;;;5.10;94.90;;;;;;4843790;29;20065;-82
2021/12/06 10:17:41;;;;;;;7.88;4.57;;;5.00;94.90;;;;;;4845383;29;20049;-82
2021/12/06 10:20:17;;;;;;;9.30;4.50;;;5.00;94.90;;;;;;4830282;29;20053;-83
2021/12/06 10:22:51;;;;;;;8.32;4.45;;;5.00;94.90;;;;;;4844227;29;20054;-82
2021/12/06 10:25:40;;;;;;;;;;;5.00;94.90;;;;;;4847472;29;20903;-81
2021/12/06 10:28:19;;;;;;;9.35;4.07;;;5.00;94.90;;;;;;4829412;29;19925;-82
2021/12/06 10:30:50;;;;;;;9.43;4.83;;;5.00;95.00;;;;;;4851595;29;20046;-82
2021/12/06 10:33:29;;;;;;;8.13;4.20;;;5.00;94.90;;;;;;4854156;29;20105;-83
2021/12/06 10:36:05;;;;;;;8.98;4.90;;;5.00;94.90;;;;;;4826220;29;20050;-82
2021/12/06 10:38:40;;;;;;;8.35;4.25;;;5.10;95.20;;;;;;4841533;29;20046;-82
2021/12/06 10:41:11;;;;;;;11.13;4.95;;;5.10;94.90;;;;;;4847174;29;20391;-80
2021/12/06 10:43:40;;;;;;;8.57;4.13;;;5.10;94.80;;;;;;4840471;29;20137;-80
2021/12/06 10:46:08;;;;;;;11.02;4.85;;;5.20;94.90;;;;;;4828975;29;20127;-81
2021/12/06 10:48:37;;;;;;;12.45;5.68;;;5.20;94.90;;;;;;4844912;29;20738;-83
2021/12/06 10:51:10;;;;;;;8.25;3.92;;;5.20;94.80;;;;;;4844324;29;20057;-83
2021/12/06 10:53:45;;;;;;;8.85;4.45;;;5.20;94.80;;;;;;4842670;29;20061;-79
2021/12/06 10:56:19;;;;;;;8.82;4.60;;;5.20;94.80;;;;;;4842737;29;20065;-80
2021/12/06 10:58:50;;;;;;;7.82;4.65;;;5.20;94.80;;;;;;4838418;29;20061;-82
2021/12/06 11:01:31;;;;;;;10.52;5.03;;;5.20;94.80;;;;;;4857649;29;20050;-84
2021/12/06 11:04:28;;;;;;;8.77;4.72;;;5.20;94.80;;;;;;4825759;29;20052;-81
2021/12/06 11:07:04;;;;;;;10.38;4.78;;;5.20;94.80;;;;;;4847793;29;20057;-80
2021/12/06 11:09:39;;;;;;;8.50;4.25;;;5.20;94.80;;;;;;4841502;29;20650;-81
2021/12/06 11:12:19;;;;;;;8.05;4.43;;;5.30;94.80;;;;;;4845769;29;20453;-84
2021/12/06 11:14:50;;;;;;;8.02;4.07;;;5.30;94.80;;;;;;4830671;29;20404;-82
2021/12/06 11:17:19;;;;;;;11.65;5.93;;;5.30;94.80;;;;;;4847057;29;20053;-85
2021/12/06 11:19:52;;;;;;;8.30;4.60;;;5.30;94.70;;;;;;4846672;29;20550;-85
2021/12/06 11:22:25;;;;;;;9.70;4.40;;;5.40;94.80;;;;;;4842962;29;20145;-81
2021/12/06 11:24:55;;;;;;;9.95;6.15;;;5.40;94.80;;;;;;4840967;29;20157;-81
2021/12/06 11:27:29;;;;;;;11.50;5.55;;;5.40;94.70;;;;;;4845803;29;20034;-85
2021/12/06 11:30:03;;;;;;;9.55;6.20;;;5.40;94.70;;;;;;4843220;29;20670;-83
2021/12/06 11:32:34;;;;;;;11.15;6.50;;;5.50;94.70;;;;;;4842878;29;20148;-81
2021/12/06 11:35:06;;;;;;;15.13;8.65;;;5.50;94.70;;;;;;4849774;29;20229;-84
2021/12/06 11:37:48;;;;;;;13.30;7.78;;;5.50;94.60;;;;;;4868687;29;20058;-85
2021/12/06 11:40:29;;;;;;;14.10;7.70;;;5.50;94.60;;;;;;4841615;29;20054;-83
2021/12/06 11:43:09;;;;;;;13.05;7.05;;;5.50;94.60;;;;;;4852572;29;20077;-85
2021/12/06 11:45:46;;;;;;;13.68;7.63;;;5.50;94.60;;;;;;4841914;29;20053;-81
2021/12/06 11:48:17;;;;;;;14.77;6.13;;;5.50;94.60;;;;;;4869466;29;20078;-80
2021/12/06 11:50:50;;;;;;;12.15;5.78;;;5.50;94.60;;;;;;4832827;29;20049;-82
2021/12/06 11:53:27;;;;;;;14.25;6.40;;;5.50;94.60;;;;;;4832464;29;20057;-77
2021/12/06 11:56:05;;;;;;;14.13;6.97;;;5.50;94.50;;;;;;4843442;29;20061;-77
2021/12/06 11:58:40;;;;;;;19.55;8.68;;;5.50;94.50;;;;;;4842478;29;20053;-78
2021/12/06 12:01:18;;;;;;;19.10;9.48;;;5.40;94.50;;;;;;4850860;29;20476;-76
2021/12/06 12:04:14;;;;;;;17.27;8.68;;;5.40;94.50;;;;;;4853207;29;20045;-81
2021/12/06 12:06:44;;;;;;;17.00;7.28;;;5.30;94.50;;;;;;4845018;29;20069;-78
2021/12/06 12:09:31;;;;;;;13.73;6.80;;;5.30;94.60;;;;;;4847711;29;20067;-77
2021/12/06 12:12:19;;;;;;;11.02;5.63;;;5.30;94.60;;;;;;4847326;29;20137;-87
2021/12/06 12:14:49;;;;;;;11.77;5.97;;;5.30;94.60;;;;;;4867468;29;20173;-78
2021/12/06 12:17:32;;;;;;;11.32;5.18;;;5.30;94.60;;;;;;4849329;29;20048;-78
2021/12/06 12:20:05;;;;;;;13.20;5.53;;;5.30;94.60;;;;;;4869082;29;20092;-77
2021/12/06 12:22:35;;;;;;;;;;;5.30;94.60;;;;;;4846415;29;20046;-77
2021/12/06 12:25:09;;;;;;;14.77;6.53;;;5.30;94.60;;;;;;4845621;29;19974;-76
2021/12/06 12:30:07;;;;;;;16.83;8.73;;;5.20;94.50;;;;;;4831134;29;20499;-78
2021/12/06 12:32:34;;;;;;;19.52;8.73;;;5.20;94.50;;;;;;4830581;29;20599;-80
2021/12/06 12:35:11;;;;;;;15.68;7.25;;;5.20;94.50;;;;;;4828333;29;20053;-80
2021/12/06 12:37:40;;;;;;;16.65;7.25;;;5.10;94.50;;;;;;4861728;29;20065;-76
2021/12/06 12:40:18;;;;;;;12.48;7.18;;;5.10;94.50;;;;;;4845042;29;20102;-77
2021/12/06 12:43:12;;;;;;;12.02;6.03;;;5.10;94.50;;;;;;4843933;29;20044;-83
2021/12/06 12:45:49;;;;;;;10.98;5.57;;;5.10;94.50;;;;;;4847016;29;20137;-81
2021/12/06 12:48:22;;;;;;;14.00;8.20;;;5.10;94.60;;;;;;4842101;29;20042;-78
2021/12/06 12:51:30;;;;;;;12.63;7.18;;;5.10;94.50;;;;;;4869956;29;20053;-77
2021/12/06 12:54:16;;;;;;;18.30;9.75;;;5.10;94.70;;;;;;4841045;29;20057;-82
2021/12/06 12:56:58;;;;;;;18.83;9.32;;;5.10;94.40;;;;;;4858970;29;20058;-78
2021/12/06 12:59:31;;;;;;;17.52;8.25;;;5.00;94.30;;;;;;4844228;29;21061;-79
2021/12/06 13:02:24;;;;;;;13.45;7.18;;;5.00;94.40;;;;;;4861950;29;20058;-80
2021/12/06 13:04:57;;;;;;;16.33;8.20;;;5.00;94.40;;;;;;4845996;29;20046;-80
2021/12/06 13:07:26;;;;;;;16.70;7.78;;;5.00;94.30;;;;;;4853453;29;20046;-82
2021/12/06 13:09:57;;;;;;;18.15;9.50;;;4.90;94.30;;;;;;4847810;29;20118;-80
2021/12/06 13:12:31;;;;;;;14.77;7.45;;;4.90;94.30;;;;;;4823186;29;20121;-81
2021/12/06 13:15:13;;;;;;;17.05;8.13;;;4.90;94.40;;;;;;4821615;29;20065;-81
2021/12/06 13:17:47;;;;;;;13.68;7.30;;;4.90;94.40;;;;;;4815405;29;20792;-82
2021/12/06 13:20:25;;;;;;;11.00;5.63;;;4.90;94.50;;;;;;4845679;29;20511;-82
2021/12/06 13:22:56;;;;;;;14.77;5.05;;;5.00;94.50;;;;;;4863896;29;20089;-82
2021/12/06 13:25:34;;;;;;;11.93;5.07;;;5.00;94.50;;;;;;4830856;29;20093;-82
2021/12/06 13:28:07;;;;;;;9.77;5.18;;;5.00;94.50;;;;;;4845379;29;20038;-80
2021/12/06 13:30:45;;;;;;;15.45;5.65;;;5.00;94.50;;;;;;4837842;29;20121;-79
2021/12/06 13:33:17;;;;;;;14.30;7.60;;;5.00;94.50;;;;;;4861805;29;20053;-80
2021/12/06 13:35:48;;;;;;;13.95;7.00;;;5.00;94.50;;;;;;4827847;29;20076;-81
2021/12/06 13:38:21;;;;;;;14.13;7.43;;;5.00;94.50;;;;;;4813360;29;20057;-82